Time;durP1;ratioP1;P1;durP2;ratioP2;P2;SDS_P1;SDS_P2;PMS_P1;PMS_P2;Temp;Humidity;BMP_temperature;BMP_pressure;BME280_temperature;BME280_humidity;BME280_pressure;Samples;Min_cycle;Max_cycle;Signal;HPM_P1;HPM_P2
2023/12/10 00:02:05;;;;;;;2.70;1.90;;;7.50;99.90;;;;;;5071814;28;20025;-89
2023/12/10 00:04:30;;;;;;;3.85;2.15;;;7.60;99.90;;;;;;5068444;28;20029;-87
2023/12/10 00:06:56;;;;;;;3.78;2.45;;;7.50;99.90;;;;;;5072736;28;20012;-89
2023/12/10 00:09:22;;;;;;;6.15;1.70;;;7.60;99.90;;;;;;5071480;28;20028;-86
2023/12/10 00:11:47;;;;;;;5.15;1.80;;;7.60;99.90;;;;;;5079038;28;20035;-89
2023/12/10 00:14:13;;;;;;;6.07;1.73;;;7.60;99.90;;;;;;5074373;28;20016;-88
2023/12/10 00:16:38;;;;;;;5.43;2.25;;;7.60;99.90;;;;;;5070772;28;20024;-88
2023/12/10 00:19:04;;;;;;;4.15;1.90;;;7.50;99.90;;;;;;5071717;28;20021;-89
2023/12/10 00:21:30;;;;;;;3.53;1.70;;;7.50;99.90;;;;;;5080893;28;20031;-88
2023/12/10 00:23:55;;;;;;;2.80;1.40;;;7.60;99.90;;;;;;5070875;28;20025;-87
2023/12/10 00:26:21;;;;;;;1.95;1.42;;;7.60;99.90;;;;;;5073293;28;20074;-87
2023/12/10 00:28:46;;;;;;;2.42;1.42;;;7.60;99.90;;;;;;5070675;28;20042;-89
2023/12/10 00:31:12;;;;;;;2.28;1.35;;;7.60;99.90;;;;;;5078188;28;20036;-87
2023/12/10 00:33:38;;;;;;;1.58;1.10;;;7.60;99.90;;;;;;5068818;28;20028;-90
2023/12/10 00:36:04;;;;;;;1.52;1.15;;;7.60;99.90;;;;;;5066948;28;20390;-88
2023/12/10 00:38:30;;;;;;;1.35;0.90;;;7.60;99.90;;;;;;5074919;28;20032;-87
2023/12/10 00:40:57;;;;;;;2.70;1.40;;;7.60;99.90;;;;;;5078134;28;20024;-88
2023/12/10 00:43:22;;;;;;;3.05;1.45;;;7.60;99.90;;;;;;5074849;28;20017;-89
2023/12/10 00:45:48;;;;;;;2.85;1.33;;;7.60;99.90;;;;;;5070884;28;20020;-88
2023/12/10 00:48:13;;;;;;;1.73;1.10;;;7.60;99.90;;;;;;5061956;28;20024;-88
2023/12/10 00:50:39;;;;;;;1.42;0.93;;;7.60;99.90;;;;;;5067521;28;20123;-88
2023/12/10 00:53:04;;;;;;;1.88;1.20;;;7.60;99.90;;;;;;5072597;28;20021;-88
2023/12/10 00:55:30;;;;;;;1.92;0.90;;;7.60;99.90;;;;;;5079557;28;20028;-88
2023/12/10 00:57:55;;;;;;;0.70;0.70;;;7.60;99.90;;;;;;5076313;28;20028;-87
2023/12/10 01:00:22;;;;;;;1.23;0.88;;;7.60;99.90;;;;;;5077679;28;20025;-89
2023/12/10 01:02:49;;;;;;;0.90;0.90;;;7.60;99.90;;;;;;5071949;28;20055;-88
2023/12/10 01:05:15;;;;;;;0.73;0.73;;;7.60;99.90;;;;;;5077141;28;20012;-89
2023/12/10 01:07:40;;;;;;;0.70;0.70;;;7.60;99.90;;;;;;5079878;28;20020;-89
2023/12/10 01:10:07;;;;;;;1.80;0.90;;;7.60;99.90;;;;;;5075295;28;20024;-89
2023/12/10 01:12:37;;;;;;;3.28;1.17;;;7.60;99.90;;;;;;5065754;28;20012;-88
2023/12/10 01:15:08;;;;;;;1.80;1.02;;;7.60;99.90;;;;;;5066579;28;20673;-89
2023/12/10 01:17:33;;;;;;;0.75;0.75;;;7.60;99.90;;;;;;5074148;28;20040;-89
2023/12/10 01:20:00;;;;;;;6.50;1.00;;;7.60;99.90;;;;;;5075531;28;20066;-88
2023/12/10 01:22:26;;;;;;;4.20;0.82;;;7.60;99.90;;;;;;5068078;28;20021;-88
2023/12/10 01:24:54;;;;;;;4.45;1.10;;;7.60;99.90;;;;;;5067885;28;20493;-88
2023/12/10 01:27:20;;;;;;;2.33;1.05;;;7.60;99.90;;;;;;5065323;28;20020;-89
2023/12/10 01:29:45;;;;;;;3.67;1.30;;;7.60;99.90;;;;;;5071212;28;20511;-88
2023/12/10 01:32:11;;;;;;;10.48;1.10;;;7.60;99.90;;;;;;5073612;28;20062;-89
2023/12/10 01:34:37;;;;;;;2.30;0.98;;;7.60;99.90;;;;;;5074406;28;20039;-89
2023/12/10 01:37:03;;;;;;;1.95;1.02;;;7.60;99.90;;;;;;5061836;28;20466;-89
2023/12/10 01:39:30;;;;;;;5.57;1.20;;;7.60;99.90;;;;;;5074045;28;20490;-87
2023/12/10 01:41:56;;;;;;;3.83;0.90;;;7.60;99.90;;;;;;5069370;28;20088;-89
2023/12/10 01:44:22;;;;;;;2.88;1.42;;;7.60;99.90;;;;;;5075568;28;20541;-92
2023/12/10 01:46:47;;;;;;;4.57;0.82;;;7.60;99.90;;;;;;5070122;28;20020;-86
2023/12/10 01:49:15;;;;;;;5.28;0.90;;;7.60;99.90;;;;;;5075313;28;20021;-89
2023/12/10 01:51:43;;;;;;;2.45;0.93;;;7.60;99.90;;;;;;5073718;28;20032;-89
2023/12/10 01:54:18;;;;;;;5.03;1.60;;;7.60;99.90;;;;;;5070936;28;20031;-88
2023/12/10 01:56:43;;;;;;;5.72;0.95;;;7.60;99.90;;;;;;5082596;28;20028;-88
2023/12/10 01:59:09;;;;;;;5.40;1.98;;;7.60;99.90;;;;;;5077596;28;20035;-88
2023/12/10 02:01:34;;;;;;;3.30;1.20;;;7.60;99.90;;;;;;5075460;28;20035;-88
2023/12/10 02:04:00;;;;;;;1.70;0.90;;;7.60;99.90;;;;;;5072834;28;20174;-88
2023/12/10 02:06:26;;;;;;;2.83;1.08;;;7.60;99.90;;;;;;5066863;28;20017;-89
2023/12/10 02:08:52;;;;;;;3.58;0.90;;;7.60;99.90;;;;;;5077594;28;20073;-88
2023/12/10 02:11:18;;;;;;;1.70;0.82;;;7.60;99.90;;;;;;5081800;28;20016;-89
2023/12/10 02:13:44;;;;;;;3.33;1.33;;;7.60;99.90;;;;;;5077863;28;20039;-88
2023/12/10 02:16:09;;;;;;;16.25;1.90;;;7.60;99.90;;;;;;5079130;28;20028;-88
2023/12/10 02:18:35;;;;;;;2.15;0.90;;;7.60;99.90;;;;;;5073521;28;20074;-88
2023/12/10 02:21:01;;;;;;;8.77;2.45;;;7.60;99.90;;;;;;5070897;28;20450;-90
2023/12/10 02:23:42;;;;;;;8.05;1.38;;;7.60;99.90;;;;;;5073783;28;20482;-88
2023/12/10 02:26:07;;;;;;;13.40;1.70;;;7.60;99.90;;;;;;5067067;28;20055;-88
2023/12/10 02:28:33;;;;;;;8.27;1.42;;;7.60;99.90;;;;;;5071032;28;20498;-88
2023/12/10 02:30:58;;;;;;;6.57;1.40;;;7.60;99.90;;;;;;5071897;28;20033;-88
2023/12/10 02:33:24;;;;;;;8.15;1.20;;;7.60;99.90;;;;;;5070878;28;20017;-89
2023/12/10 02:35:50;;;;;;;3.65;1.48;;;7.60;99.90;;;;;;5078616;28;20028;-89
2023/12/10 02:38:20;;;;;;;7.38;1.65;;;7.60;99.90;;;;;;5074026;28;20497;-88
2023/12/10 02:40:46;;;;;;;4.75;1.73;;;7.60;99.90;;;;;;5071304;28;20510;-88
2023/12/10 02:43:13;;;;;;;5.30;1.88;;;7.60;99.90;;;;;;5066644;28;20111;-88
2023/12/10 02:45:38;;;;;;;7.50;1.73;;;7.60;99.90;;;;;;5067315;28;20044;-88
2023/12/10 02:48:04;;;;;;;6.82;1.67;;;7.60;99.90;;;;;;5073231;28;20742;-88
2023/12/10 02:50:30;;;;;;;5.88;1.58;;;7.60;99.90;;;;;;5070439;28;20052;-89
2023/12/10 02:52:55;;;;;;;9.57;2.40;;;7.60;99.90;;;;;;5064416;28;20100;-89
2023/12/10 02:55:21;;;;;;;8.15;1.65;;;7.60;99.90;;;;;;5067524;28;20035;-88
2023/12/10 02:57:46;;;;;;;8.57;1.40;;;7.60;99.90;;;;;;5074163;28;20024;-87
2023/12/10 03:00:14;;;;;;;5.00;1.60;;;7.60;99.90;;;;;;5074467;28;20036;-89
2023/12/10 03:02:40;;;;;;;2.20;1.40;;;7.60;99.90;;;;;;5073170;28;20074;-88
2023/12/10 03:05:05;;;;;;;7.93;2.03;;;7.60;99.90;;;;;;5064781;28;20625;-89
2023/12/10 03:07:31;;;;;;;7.45;1.77;;;7.60;99.90;;;;;;5065118;28;20023;-89
2023/12/10 03:09:57;;;;;;;5.72;2.20;;;7.60;99.90;;;;;;5068168;28;20078;-87
2023/12/10 03:12:22;;;;;;;9.52;2.30;;;7.60;99.90;;;;;;5075841;28;20024;-89
2023/12/10 03:14:48;;;;;;;7.53;2.08;;;7.60;99.90;;;;;;5068995;28;20035;-90
2023/12/10 03:17:13;;;;;;;8.73;1.45;;;7.60;99.90;;;;;;5066340;28;20021;-89
2023/12/10 03:19:40;;;;;;;9.02;1.83;;;7.60;99.90;;;;;;5068813;28;20089;-88
2023/12/10 03:22:05;;;;;;;8.18;1.58;;;7.60;99.90;;;;;;5063776;28;20028;-88
2023/12/10 03:24:31;;;;;;;10.45;1.58;;;7.60;99.90;;;;;;5076464;28;20016;-89
2023/12/10 03:26:57;;;;;;;6.97;1.70;;;7.60;99.90;;;;;;5078043;28;20530;-88
2023/12/10 03:29:22;;;;;;;9.95;2.15;;;7.60;99.90;;;;;;5071913;28;20402;-88
2023/12/10 03:31:48;;;;;;;7.28;1.90;;;7.60;99.90;;;;;;5074675;28;20025;-88
2023/12/10 03:34:13;;;;;;;7.72;1.80;;;7.60;99.90;;;;;;5074408;28;20029;-88
2023/12/10 03:36:39;;;;;;;11.88;1.95;;;7.60;99.90;;;;;;5076131;28;20028;-88
2023/12/10 03:39:04;;;;;;;9.45;1.90;;;7.60;99.90;;;;;;5069958;28;20028;-88
2023/12/10 03:41:30;;;;;;;10.57;1.90;;;7.60;99.90;;;;;;5074382;28;20034;-89
2023/12/10 03:43:56;;;;;;;11.73;1.70;;;7.60;99.90;;;;;;5074838;28;20034;-88
2023/12/10 03:46:21;;;;;;;6.15;1.75;;;7.60;99.90;;;;;;5065582;28;20017;-91
2023/12/10 03:48:47;;;;;;;11.52;1.90;;;7.60;99.90;;;;;;5074118;28;20031;-88
2023/12/10 03:51:12;;;;;;;8.65;1.70;;;7.60;99.90;;;;;;5061855;28;20527;-91
2023/12/10 03:53:38;;;;;;;8.52;1.80;;;7.60;99.90;;;;;;5066667;28;20029;-88
2023/12/10 03:56:04;;;;;;;7.90;1.45;;;7.60;99.90;;;;;;5074967;28;20438;-88
2023/12/10 03:58:30;;;;;;;11.95;1.35;;;7.60;99.90;;;;;;5074313;28;20025;-88
2023/12/10 04:00:55;;;;;;;8.23;1.80;;;7.60;99.90;;;;;;5080023;28;20039;-88
2023/12/10 04:03:21;;;;;;;8.05;2.13;;;7.60;99.90;;;;;;5067384;28;20013;-88
2023/12/10 04:05:46;;;;;;;11.65;1.65;;;7.60;99.90;;;;;;5070174;28;20021;-89
2023/12/10 04:08:12;;;;;;;4.47;1.20;;;7.60;99.90;;;;;;5075361;28;20024;-89
2023/12/10 04:10:38;;;;;;;6.85;1.25;;;7.60;99.90;;;;;;5082600;28;20394;-89
2023/12/10 04:13:03;;;;;;;8.98;1.25;;;7.60;99.90;;;;;;5078661;28;20030;-89
2023/12/10 04:15:29;;;;;;;7.43;1.65;;;7.60;99.90;;;;;;5078429;28;20111;-89
2023/12/10 04:17:54;;;;;;;8.23;1.67;;;7.60;99.90;;;;;;5073636;28;20020;-89
2023/12/10 04:20:20;;;;;;;4.15;1.20;;;7.60;99.90;;;;;;5079625;28;20542;-88
2023/12/10 04:22:45;;;;;;;8.40;1.55;;;7.60;99.90;;;;;;5072269;28;20036;-88
2023/12/10 04:25:11;;;;;;;5.55;1.05;;;7.60;99.90;;;;;;5076685;28;20024;-89
2023/12/10 04:27:37;;;;;;;11.70;1.55;;;7.60;99.90;;;;;;5086215;28;20106;-88
2023/12/10 04:30:03;;;;;;;7.50;2.00;;;7.60;99.90;;;;;;5076997;28;20103;-88
2023/12/10 04:32:29;;;;;;;5.93;1.15;;;7.60;99.90;;;;;;5075693;28;20036;-88
2023/12/10 04:34:55;;;;;;;5.00;1.45;;;7.60;99.90;;;;;;5069154;28;20025;-89
2023/12/10 04:37:20;;;;;;;6.50;1.35;;;7.60;99.90;;;;;;5069191;28;20563;-89
2023/12/10 04:39:46;;;;;;;5.03;1.60;;;7.60;99.90;;;;;;5078700;28;20032;-88
2023/12/10 04:42:12;;;;;;;7.82;1.83;;;7.60;99.90;;;;;;5076792;28;20028;-88
2023/12/10 04:44:37;;;;;;;10.38;2.10;;;7.60;99.90;;;;;;5077114;28;20046;-89
2023/12/10 04:47:03;;;;;;;6.18;1.25;;;7.60;99.90;;;;;;5077724;28;20474;-89
2023/12/10 04:49:29;;;;;;;10.48;1.88;;;7.60;99.90;;;;;;5078899;28;20457;-86
2023/12/10 04:51:54;;;;;;;9.77;1.80;;;7.60;99.90;;;;;;5083439;28;20085;-88
2023/12/10 04:54:20;;;;;;;7.93;1.83;;;7.60;99.90;;;;;;5076446;28;20034;-88
2023/12/10 04:56:45;;;;;;;4.78;1.27;;;7.60;99.90;;;;;;5076017;28;20028;-89
2023/12/10 04:59:11;;;;;;;4.28;1.15;;;7.60;99.90;;;;;;5066625;28;20035;-89
2023/12/10 05:01:36;;;;;;;5.60;1.30;;;7.60;99.90;;;;;;5082593;28;20494;-89
2023/12/10 05:04:02;;;;;;;9.52;1.67;;;7.60;99.90;;;;;;5074244;28;20021;-88
2023/12/10 05:06:28;;;;;;;17.27;2.08;;;7.60;99.90;;;;;;5077609;28;20017;-88
2023/12/10 05:08:54;;;;;;;10.68;1.65;;;7.60;99.90;;;;;;5080019;28;20024;-89
2023/12/10 05:11:19;;;;;;;8.02;1.33;;;7.60;99.90;;;;;;5074910;28;20090;-87
2023/12/10 05:13:45;;;;;;;12.13;2.13;;;7.60;99.90;;;;;;5077093;28;20016;-88
2023/12/10 05:16:11;;;;;;;10.90;1.73;;;7.60;99.90;;;;;;5076061;28;20032;-88
2023/12/10 05:18:36;;;;;;;9.15;1.67;;;7.60;99.90;;;;;;5079119;28;20028;-88
2023/12/10 05:21:02;;;;;;;9.80;1.65;;;7.60;99.90;;;;;;5073070;28;20037;-88
2023/12/10 05:23:28;;;;;;;12.40;1.25;;;7.60;99.90;;;;;;5077980;28;20017;-88
2023/12/10 05:25:53;;;;;;;9.65;1.35;;;7.60;99.90;;;;;;5076284;28;20100;-89
2023/12/10 05:28:19;;;;;;;7.43;1.48;;;7.60;99.90;;;;;;5078281;28;20478;-88
2023/12/10 05:30:44;;;;;;;8.88;1.52;;;7.60;99.90;;;;;;5076740;28;20294;-88
2023/12/10 05:33:10;;;;;;;5.45;1.10;;;7.60;99.90;;;;;;5070824;28;20035;-89
2023/12/10 05:35:35;;;;;;;4.60;1.45;;;7.60;99.90;;;;;;5073245;28;20059;-88
2023/12/10 05:38:03;;;;;;;9.70;1.88;;;7.60;99.90;;;;;;5072620;28;20107;-89
2023/12/10 05:40:29;;;;;;;4.20;1.27;;;7.60;99.90;;;;;;5080009;28;20027;-87
2023/12/10 05:42:54;;;;;;;2.83;1.30;;;7.60;99.90;;;;;;5073358;28;20028;-89
2023/12/10 05:45:20;;;;;;;9.57;1.33;;;7.60;99.90;;;;;;5074416;28;20582;-89
2023/12/10 05:47:46;;;;;;;9.57;1.60;;;7.60;99.90;;;;;;5074143;28;20107;-89
2023/12/10 05:50:11;;;;;;;11.85;1.60;;;7.60;99.90;;;;;;5069996;28;20029;-90
2023/12/10 05:52:37;;;;;;;9.95;1.92;;;7.60;99.90;;;;;;5075844;28;20565;-89
2023/12/10 05:55:03;;;;;;;8.13;1.67;;;7.60;99.90;;;;;;5065891;28;20024;-89
2023/12/10 05:57:28;;;;;;;10.40;1.75;;;7.60;99.90;;;;;;5075396;28;20123;-89
2023/12/10 05:59:54;;;;;;;10.15;2.17;;;7.60;99.90;;;;;;5078037;28;20081;-89
2023/12/10 06:02:21;;;;;;;10.93;1.45;;;7.60;99.90;;;;;;5075102;28;20383;-88
2023/12/10 06:04:47;;;;;;;6.45;1.42;;;7.60;99.90;;;;;;5081138;28;20013;-89
2023/12/10 06:07:13;;;;;;;5.10;1.40;;;7.60;99.90;;;;;;5082614;28;20069;-89
2023/12/10 06:09:38;;;;;;;4.57;1.20;;;7.60;99.90;;;;;;5073890;28;20149;-89
2023/12/10 06:12:04;;;;;;;3.70;1.20;;;7.60;99.90;;;;;;5076474;28;20021;-88
2023/12/10 06:14:30;;;;;;;5.25;1.52;;;7.60;99.90;;;;;;5074219;28;20500;-88
2023/12/10 06:16:55;;;;;;;10.00;1.75;;;7.60;99.90;;;;;;5078338;28;20056;-88
2023/12/10 06:19:21;;;;;;;6.45;1.13;;;7.60;99.90;;;;;;5074243;28;20017;-92
2023/12/10 06:21:46;;;;;;;11.40;1.85;;;7.60;99.90;;;;;;5081009;28;20029;-88
2023/12/10 06:24:12;;;;;;;6.22;1.60;;;7.60;99.90;;;;;;5073876;28;20473;-89
2023/12/10 06:26:37;;;;;;;6.55;1.30;;;7.60;99.90;;;;;;5079084;28;20107;-89
2023/12/10 06:29:03;;;;;;;11.93;1.75;;;7.60;99.90;;;;;;5076765;28;20035;-89
2023/12/10 06:31:29;;;;;;;4.15;1.48;;;7.60;99.90;;;;;;5073352;28;20502;-89
2023/12/10 06:33:54;;;;;;;5.40;1.17;;;7.60;99.90;;;;;;5076552;28;20028;-88
2023/12/10 06:36:20;;;;;;;5.57;0.95;;;7.60;99.90;;;;;;5071953;28;20024;-89
2023/12/10 06:38:46;;;;;;;7.00;1.67;;;7.60;99.90;;;;;;5073968;28;20854;-89
2023/12/10 06:41:11;;;;;;;5.78;1.73;;;7.60;99.90;;;;;;5078289;28;20462;-89
2023/12/10 06:43:37;;;;;;;6.85;1.60;;;7.60;99.90;;;;;;5076921;28;20020;-87
2023/12/10 06:46:03;;;;;;;9.63;1.67;;;7.60;99.90;;;;;;5080728;28;20030;-88
2023/12/10 06:48:28;;;;;;;9.30;2.38;;;7.60;99.90;;;;;;5070566;28;20394;-88
2023/12/10 06:50:54;;;;;;;9.25;2.13;;;7.60;99.90;;;;;;5078464;28;20024;-87
2023/12/10 06:53:19;;;;;;;9.90;2.08;;;7.60;99.90;;;;;;5079154;28;20146;-87
2023/12/10 06:55:46;;;;;;;9.57;1.95;;;7.50;99.90;;;;;;5074792;28;20032;-89
2023/12/10 06:58:11;;;;;;;12.73;2.17;;;7.60;99.90;;;;;;5067048;28;20402;-89
2023/12/10 07:00:37;;;;;;;6.93;1.75;;;7.50;99.90;;;;;;5059547;28;20028;-88
2023/12/10 07:03:03;;;;;;;7.95;1.98;;;7.50;99.90;;;;;;5064749;28;20017;-88
2023/12/10 07:05:28;;;;;;;6.32;2.25;;;7.60;99.90;;;;;;5064752;28;20402;-88
2023/12/10 07:07:54;;;;;;;3.72;1.67;;;7.60;99.90;;;;;;5064695;28;20024;-90
2023/12/10 07:10:19;;;;;;;7.63;2.15;;;7.60;99.90;;;;;;5066880;28;20036;-88
2023/12/10 07:12:45;;;;;;;5.38;1.95;;;7.60;99.90;;;;;;5061031;28;20114;-88
2023/12/10 07:15:11;;;;;;;2.92;1.35;;;7.60;99.90;;;;;;5062720;28;20483;-89
2023/12/10 07:17:37;;;;;;;6.63;1.50;;;7.60;99.90;;;;;;5082331;28;20034;-88
2023/12/10 07:20:03;;;;;;;11.00;2.00;;;7.60;99.90;;;;;;5080616;28;20165;-88
2023/12/10 07:22:29;;;;;;;8.10;1.25;;;7.60;99.90;;;;;;5068410;28;21263;-88
2023/12/10 07:24:55;;;;;;;8.43;1.77;;;7.50;99.90;;;;;;5062232;28;20111;-88
2023/12/10 07:27:21;;;;;;;11.43;1.50;;;7.50;99.90;;;;;;5066880;28;20063;-89
2023/12/10 07:29:46;;;;;;;14.57;1.63;;;7.60;99.90;;;;;;5060823;28;20045;-89
2023/12/10 07:32:12;;;;;;;18.15;2.22;;;7.50;99.90;;;;;;5062619;28;20027;-88
2023/12/10 07:34:37;;;;;;;5.88;1.10;;;7.60;99.90;;;;;;5064963;28;20534;-89
2023/12/10 07:37:03;;;;;;;8.30;2.35;;;7.60;99.90;;;;;;5060331;28;20471;-89
2023/12/10 07:39:29;;;;;;;10.38;2.10;;;7.60;99.90;;;;;;5070266;28;20021;-90
2023/12/10 07:41:55;;;;;;;6.82;1.75;;;7.60;99.90;;;;;;5068402;28;20033;-91
2023/12/10 07:44:20;;;;;;;10.75;1.77;;;7.60;99.90;;;;;;5066236;28;20021;-89
2023/12/10 07:46:46;;;;;;;5.30;1.33;;;7.60;99.90;;;;;;5075170;28;20063;-89
2023/12/10 07:49:12;;;;;;;12.30;1.90;;;7.60;99.90;;;;;;5069728;28;20028;-90
2023/12/10 07:51:37;;;;;;;4.78;1.25;;;7.60;99.90;;;;;;5077619;28;20123;-88
2023/12/10 07:54:03;;;;;;;11.13;2.72;;;7.60;99.90;;;;;;5056997;28;20033;-90
2023/12/10 07:56:28;;;;;;;8.20;1.63;;;7.60;99.90;;;;;;5064692;28;20422;-88
2023/12/10 07:58:54;;;;;;;7.93;1.67;;;7.60;99.90;;;;;;5063550;28;20063;-90
2023/12/10 08:01:19;;;;;;;9.52;1.75;;;7.60;99.90;;;;;;5064769;28;20027;-89
2023/12/10 08:03:45;;;;;;;10.15;2.10;;;7.60;99.90;;;;;;5064872;28;20433;-89
2023/12/10 08:06:11;;;;;;;13.77;2.75;;;7.60;99.90;;;;;;5064858;28;20013;-89
2023/12/10 08:08:37;;;;;;;12.45;1.65;;;7.60;99.90;;;;;;5067666;28;20047;-89
2023/12/10 08:11:05;;;;;;;8.02;1.80;;;7.60;99.90;;;;;;5079152;28;20020;-89
2023/12/10 08:13:31;;;;;;;11.57;1.98;;;7.60;99.90;;;;;;5082387;28;20023;-89
2023/12/10 08:15:56;;;;;;;10.38;2.20;;;7.60;99.90;;;;;;5068403;28;20020;-89
2023/12/10 08:18:23;;;;;;;10.13;1.92;;;7.60;99.90;;;;;;5073686;28;20032;-90
2023/12/10 08:20:49;;;;;;;9.13;1.83;;;7.60;99.90;;;;;;5071489;28;20060;-88
2023/12/10 08:23:14;;;;;;;7.85;2.35;;;7.60;99.90;;;;;;5070844;28;20533;-88
2023/12/10 08:25:40;;;;;;;14.65;2.08;;;7.60;99.90;;;;;;5076572;28;20111;-89
2023/12/10 08:28:05;;;;;;;11.40;1.80;;;7.60;99.90;;;;;;5069249;28;20502;-89
2023/12/10 08:30:31;;;;;;;10.18;2.58;;;7.60;99.90;;;;;;5076198;28;20016;-89
2023/12/10 08:32:57;;;;;;;7.20;1.50;;;7.60;99.90;;;;;;5072707;28;20028;-89
2023/12/10 08:35:23;;;;;;;6.03;1.88;;;7.60;99.90;;;;;;5074724;28;20063;-88
2023/12/10 08:37:49;;;;;;;15.15;2.53;;;7.60;99.90;;;;;;5071912;28;20024;-88
2023/12/10 08:40:14;;;;;;;7.80;1.92;;;7.70;99.90;;;;;;5075376;28;20031;-89
2023/12/10 08:42:40;;;;;;;12.55;1.95;;;7.60;99.90;;;;;;5080542;28;20099;-90
2023/12/10 08:45:08;;;;;;;5.47;2.08;;;7.70;99.90;;;;;;5080435;28;20020;-89
2023/12/10 08:47:34;;;;;;;9.43;2.30;;;7.70;99.90;;;;;;5082267;28;20035;-89
2023/12/10 08:50:00;;;;;;;12.88;1.90;;;7.70;99.90;;;;;;5083225;28;20020;-89
2023/12/10 08:52:25;;;;;;;9.40;2.42;;;7.70;99.90;;;;;;5078958;28;20149;-89
2023/12/10 08:54:51;;;;;;;19.23;2.83;;;7.70;99.90;;;;;;5081730;28;20060;-90
2023/12/10 08:57:16;;;;;;;24.13;3.05;;;7.70;99.90;;;;;;5082539;28;20123;-89
2023/12/10 08:59:42;;;;;;;4.72;1.67;;;7.70;99.90;;;;;;5069391;28;20066;-89
2023/12/10 09:02:08;;;;;;;6.20;1.90;;;7.70;99.90;;;;;;5067333;28;20017;-88
2023/12/10 09:04:33;;;;;;;10.63;2.60;;;7.70;99.90;;;;;;5074771;28;20021;-89
2023/12/10 09:06:59;;;;;;;10.82;1.92;;;7.70;99.90;;;;;;5079269;28;20017;-89
2023/12/10 09:09:24;;;;;;;13.20;2.53;;;7.60;99.90;;;;;;5069071;28;20029;-89
2023/12/10 09:11:50;;;;;;;9.05;1.98;;;7.70;99.90;;;;;;5078487;28;20470;-89
2023/12/10 09:14:17;;;;;;;17.20;2.28;;;7.70;99.90;;;;;;5073273;28;20028;-88
2023/12/10 09:16:44;;;;;;;8.20;2.55;;;7.60;99.90;;;;;;5079555;28;20020;-89
2023/12/10 09:19:10;;;;;;;10.40;1.90;;;7.60;99.90;;;;;;5074961;28;20056;-90
2023/12/10 09:21:35;;;;;;;4.10;1.60;;;7.70;99.90;;;;;;5079899;28;20051;-89
2023/12/10 09:24:01;;;;;;;10.30;1.52;;;7.70;99.90;;;;;;5069532;28;20017;-89
2023/12/10 09:26:27;;;;;;;12.32;2.58;;;7.70;99.90;;;;;;5081710;28;21363;-90
2023/12/10 09:28:52;;;;;;;8.15;2.33;;;7.70;99.90;;;;;;5074924;28;20025;-89
2023/12/10 09:31:18;;;;;;;9.57;2.22;;;7.70;99.90;;;;;;5080154;28;20097;-88
2023/12/10 09:33:44;;;;;;;11.38;2.00;;;7.70;99.90;;;;;;5078973;28;20055;-89
2023/12/10 09:36:09;;;;;;;9.68;2.25;;;7.70;99.90;;;;;;5077337;28;20700;-89
2023/12/10 09:38:35;;;;;;;10.73;1.70;;;7.80;99.90;;;;;;5068749;28;20032;-88
2023/12/10 09:41:00;;;;;;;14.77;2.10;;;7.70;99.90;;;;;;5075233;28;20024;-89
2023/12/10 09:43:26;;;;;;;7.80;1.92;;;7.70;99.90;;;;;;5076469;28;20036;-89
2023/12/10 09:45:51;;;;;;;7.32;1.60;;;7.80;99.90;;;;;;5071745;28;20028;-88
2023/12/10 09:48:17;;;;;;;13.23;1.92;;;7.80;99.90;;;;;;5072479;28;20102;-89
2023/12/10 09:50:43;;;;;;;9.48;2.08;;;7.80;99.90;;;;;;5068734;28;20081;-89
2023/12/10 09:53:08;;;;;;;8.70;1.42;;;7.80;99.90;;;;;;5077482;28;20031;-90
2023/12/10 09:55:35;;;;;;;9.70;1.45;;;7.80;99.90;;;;;;5076821;28;20048;-89
2023/12/10 09:58:01;;;;;;;10.18;2.28;;;7.90;99.90;;;;;;5074111;28;20025;-88
2023/12/10 10:00:27;;;;;;;7.28;2.03;;;7.90;99.90;;;;;;5085881;28;20428;-89
2023/12/10 10:02:59;;;;;;;10.85;1.85;;;7.90;99.90;;;;;;5076152;28;20024;-89
2023/12/10 10:05:26;;;;;;;14.25;1.42;;;8.00;99.90;;;;;;5080283;28;20023;-88
2023/12/10 10:07:51;;;;;;;8.35;1.85;;;8.00;99.90;;;;;;5076941;28;20052;-88
2023/12/10 10:10:20;;;;;;;7.70;1.50;;;8.00;99.90;;;;;;5073220;28;20075;-89
2023/12/10 10:12:45;;;;;;;8.68;1.42;;;8.00;99.90;;;;;;5072171;28;20579;-89
2023/12/10 10:15:11;;;;;;;9.93;1.70;;;8.00;99.90;;;;;;5069600;28;20021;-88
2023/12/10 10:17:36;;;;;;;9.60;1.85;;;8.00;99.90;;;;;;5074767;28;20110;-90
2023/12/10 10:20:05;;;;;;;12.05;1.70;;;8.10;99.90;;;;;;5077912;28;20497;-89
2023/12/10 10:22:32;;;;;;;13.48;1.85;;;8.10;99.90;;;;;;5071657;28;20035;-88
2023/12/10 10:24:58;;;;;;;17.80;2.50;;;8.10;99.90;;;;;;5071848;28;20020;-89
2023/12/10 10:27:24;;;;;;;10.05;1.65;;;8.10;99.90;;;;;;5075941;28;20149;-88
2023/12/10 10:29:53;;;;;;;6.38;1.55;;;8.10;99.90;;;;;;5071550;28;20108;-89
2023/12/10 10:32:22;;;;;;;7.10;1.40;;;8.20;99.90;;;;;;5073702;28;20028;-89
2023/12/10 10:34:49;;;;;;;8.25;1.60;;;8.30;99.90;;;;;;5072641;28;20032;-89
2023/12/10 10:37:16;;;;;;;5.75;1.30;;;8.30;99.90;;;;;;5067179;28;20020;-88
2023/12/10 10:39:44;;;;;;;4.32;1.52;;;8.30;99.90;;;;;;5074924;28;20394;-89
2023/12/10 10:42:10;;;;;;;6.03;1.40;;;8.20;99.90;;;;;;5080790;28;20035;-89
2023/12/10 10:44:37;;;;;;;8.88;1.95;;;8.20;99.90;;;;;;5072130;28;20024;-89
2023/12/10 10:47:04;;;;;;;7.35;1.60;;;8.20;99.90;;;;;;5072054;28;20029;-89
2023/12/10 10:49:31;;;;;;;4.05;1.48;;;8.10;99.90;;;;;;5075941;28;20081;-89
2023/12/10 10:52:00;;;;;;;9.38;1.85;;;8.10;99.90;;;;;;5072419;28;20036;-88
2023/12/10 10:54:26;;;;;;;4.57;1.52;;;8.10;99.90;;;;;;5075587;28;20020;-87
2023/12/10 10:56:52;;;;;;;5.75;1.52;;;8.00;99.90;;;;;;5070904;28;20056;-90
2023/12/10 10:59:31;;;;;;;4.38;1.63;;;8.00;99.90;;;;;;5070524;28;20055;-89
2023/12/10 11:02:11;;;;;;;6.85;1.70;;;8.00;99.90;;;;;;5069594;28;20040;-89
2023/12/10 11:04:40;;;;;;;7.53;1.42;;;8.00;99.90;;;;;;5065625;28;20009;-89
2023/12/10 11:07:06;;;;;;;8.32;1.80;;;8.00;99.90;;;;;;5058696;28;20025;-90
2023/12/10 11:09:52;;;;;;;9.60;1.50;;;7.90;99.90;;;;;;5060209;28;20012;-89
2023/12/10 11:12:44;;;;;;;13.60;1.85;;;7.90;99.90;;;;;;5061966;28;20045;-89
2023/12/10 11:15:18;;;;;;;5.15;1.67;;;7.90;99.90;;;;;;5053845;28;20064;-90
2023/12/10 11:17:51;;;;;;;11.65;1.60;;;7.90;99.90;;;;;;5062276;28;20040;-89
2023/12/10 11:20:32;;;;;;;8.50;2.08;;;7.90;99.90;;;;;;5060429;28;20032;-88
2023/12/10 11:22:58;;;;;;;8.25;1.95;;;7.90;99.90;;;;;;5066950;28;20089;-88
2023/12/10 11:25:26;;;;;;;12.90;2.10;;;7.90;99.90;;;;;;5062069;28;20465;-89
2023/12/10 11:27:51;;;;;;;10.07;2.63;;;7.90;99.90;;;;;;5066650;28;20433;-88
2023/12/10 11:30:17;;;;;;;10.63;2.25;;;7.90;99.90;;;;;;5067903;28;20035;-88
2023/12/10 11:32:43;;;;;;;7.60;2.28;;;7.90;99.90;;;;;;5073613;28;20047;-88
2023/12/10 11:35:08;;;;;;;7.57;2.17;;;7.90;99.90;;;;;;5066038;28;20032;-92
2023/12/10 11:37:34;;;;;;;9.35;1.95;;;7.90;99.90;;;;;;5066466;28;20111;-90
2023/12/10 11:40:00;;;;;;;14.15;1.80;;;7.90;99.90;;;;;;5072397;28;20098;-89
2023/12/10 11:42:26;;;;;;;8.43;2.30;;;7.90;99.90;;;;;;5072184;28;20032;-89
2023/12/10 11:44:51;;;;;;;5.45;2.10;;;7.90;99.90;;;;;;5069751;28;20071;-88
2023/12/10 11:47:17;;;;;;;11.10;2.03;;;7.90;99.90;;;;;;5061103;28;20033;-89
2023/12/10 11:49:43;;;;;;;5.80;1.83;;;7.90;99.90;;;;;;5065594;28;20016;-88
2023/12/10 11:52:11;;;;;;;7.97;1.92;;;7.90;99.90;;;;;;5072736;28;20043;-89
2023/12/10 11:54:37;;;;;;;9.30;1.92;;;7.90;99.90;;;;;;5072826;28;20084;-89
2023/12/10 11:57:03;;;;;;;5.53;1.63;;;7.90;99.90;;;;;;5057216;28;20117;-89
2023/12/10 11:59:28;;;;;;;11.98;1.80;;;7.90;99.90;;;;;;5060830;28;20032;-88
2023/12/10 12:01:56;;;;;;;8.18;1.55;;;7.90;99.90;;;;;;5070938;28;20486;-89
2023/12/10 12:04:24;;;;;;;2.85;1.33;;;7.90;99.90;;;;;;5070662;28;20080;-88
2023/12/10 12:06:49;;;;;;;7.03;1.45;;;7.90;99.90;;;;;;5076379;28;20031;-88
2023/12/10 12:09:20;;;;;;;5.20;1.70;;;7.90;99.90;;;;;;5068064;28;20441;-88
2023/12/10 12:11:46;;;;;;;3.42;1.60;;;7.90;99.90;;;;;;5068574;28;20024;-89
2023/12/10 12:14:15;;;;;;;5.63;1.55;;;7.90;99.90;;;;;;5071596;28;20028;-90
2023/12/10 12:16:41;;;;;;;10.20;1.70;;;7.90;99.90;;;;;;5071673;28;20029;-89
2023/12/10 12:19:08;;;;;;;4.43;1.23;;;7.90;99.90;;;;;;5072192;28;20497;-89
2023/12/10 12:21:34;;;;;;;5.38;1.30;;;7.90;99.90;;;;;;5078779;28;20503;-89
2023/12/10 12:23:59;;;;;;;5.35;1.40;;;7.90;99.90;;;;;;5082459;28;20070;-89
2023/12/10 12:26:25;;;;;;;5.47;1.30;;;7.90;99.90;;;;;;5074706;28;20016;-90
2023/12/10 12:28:51;;;;;;;10.05;2.58;;;8.00;99.90;;;;;;5071767;28;20021;-89
2023/12/10 12:31:16;;;;;;;9.63;1.92;;;8.00;99.90;;;;;;5073637;28;20031;-88
2023/12/10 12:33:42;;;;;;;7.68;1.70;;;8.00;99.90;;;;;;5067093;28;20074;-89
2023/12/10 12:36:08;;;;;;;4.68;1.38;;;7.90;99.90;;;;;;5077534;28;20047;-89
2023/12/10 12:38:34;;;;;;;8.18;1.30;;;8.00;99.90;;;;;;5079220;28;20025;-89
2023/12/10 12:40:59;;;;;;;11.73;1.45;;;7.90;99.90;;;;;;5078873;28;20019;-89
2023/12/10 12:43:25;;;;;;;8.15;1.83;;;8.00;99.90;;;;;;5072303;28;20027;-89
2023/12/10 12:45:50;;;;;;;12.05;1.25;;;8.00;99.90;;;;;;5074775;28;20024;-89
2023/12/10 12:48:16;;;;;;;8.80;1.60;;;8.00;99.90;;;;;;5082868;28;20024;-89
2023/12/10 12:50:42;;;;;;;2.85;1.23;;;7.90;99.90;;;;;;5079014;28;20019;-90